Flag for Australia

Past Weather in 25°06'25.2"S, 153°03'38.2"E, Australia — Yesterday and Last 2 Weeks

Currently: 57 °F. Passing clouds. (Weather station: Maryborough, Australia). See more current weather

Past Weather in 25°06'25.2"S, 153°03'38.2"E — Graph

°F

25°06'25.2"S, 153°03'38.2"E Temperature Yesterday

Maximum temperature yesterday: 76 °F (at 1:00 pm)
Minimum temperature yesterday: 58 °F (at 11:00 pm)
Average temperature yesterday: 65 °F

High & Low Weather Summary for the Past Weeks

 TemperatureHumidityPressure
High81 °F (May 12, 2:00 pm)100% (May 12, 2:00 am)30.28 "Hg (May 12, 2:00 am)
Low47 °F (May 20, 6:00 am)40% (May 20, 2:00 pm)29.90 "Hg (May 18, 3:00 pm)
Average65 °F81%30.14 "Hg
* Reported May 11 12:00 am — May 26 12:00 am, 25°06'25.2"S, 153°03'38.2"E. Weather by CustomWeather, © 2024

Note: Actual official high and low records may vary slightly from our data, if they occured in-between our weather recording intervals... More about our weather records

25°06'25.2"S, 153°03'38.2"E Weather History for the Previous 24 Hours

Scroll right to see more
 ConditionsComfort  
Time TempWeatherWind HumidityBarometerVisibility
12:00 am
Sun, May 26
57 °FPassing clouds.No wind99%30.22 "HgN/A
11:00 pm
Sat, May 25
58 °FCool.No wind99%30.23 "HgN/A
10:00 pm59 °FCool.3 mph99%30.23 "HgN/A
9:00 pm60 °FPassing clouds.7 mph99%30.24 "HgN/A
8:00 pm62 °FCool.3 mph94%30.23 "HgN/A
7:00 pm64 °FMild.6 mph94%30.23 "HgN/A
6:00 pm63 °FMild.1 mph91%30.21 "HgN/A
5:00 pm67 °FMild.8 mph76%30.19 "HgN/A
4:00 pm72 °FMild.10 mph63%30.17 "HgN/A
3:00 pm74 °FOvercast.12 mph56%30.17 "HgN/A
2:00 pm76 °FMild.14 mph56%30.18 "HgN/A
1:00 pm76 °FMild.8 mph55%30.19 "HgN/A
12:00 pm74 °FScattered clouds.9 mph65%30.22 "HgN/A
11:00 am73 °FMild.9 mph71%30.25 "HgN/A
10:00 am69 °FMild.10 mph77%30.27 "HgN/A
9:00 am67 °FPassing clouds.9 mph83%30.27 "HgN/A
8:00 am64 °FMild.8 mph95%30.25 "HgN/A
7:00 am62 °FCool.7 mph99%30.23 "HgN/A
6:00 am61 °FOvercast.5 mph99%30.23 "HgN/A
5:00 am62 °FCool.8 mph99%30.21 "HgN/A
4:00 am62 °FCool.8 mph99%30.20 "HgN/A
3:00 am62 °FOvercast.12 mph99%30.21 "Hg4 mi
2:00 am62 °FCool.6 mph99%30.22 "HgN/A
1:00 am62 °FCool.8 mph98%30.24 "HgN/A
Weather by CustomWeather, © 2024

See weather overview